createdAt,value
2022-09-04T00:01:20.116Z,18.60
2022-09-04T00:06:26.767Z,18.70
2022-09-04T00:11:39.139Z,18.50
2022-09-04T00:16:43.474Z,18.40
2022-09-04T00:21:46.977Z,18.30
2022-09-04T00:26:54.255Z,18.30
2022-09-04T00:31:58.473Z,18.20
2022-09-04T00:37:04.478Z,18.20
2022-09-04T00:42:17.438Z,18.10
2022-09-04T00:47:57.925Z,18.10
2022-09-04T00:53:15.235Z,18.00
2022-09-04T00:58:25.089Z,18.00
2022-09-04T01:03:45.578Z,17.90
2022-09-04T01:09:34.862Z,17.90
2022-09-04T01:14:41.303Z,17.80
2022-09-04T01:19:53.235Z,17.80
2022-09-04T01:25:14.678Z,17.80
2022-09-04T01:30:17.736Z,17.70
2022-09-04T01:35:25.689Z,17.70
2022-09-04T01:40:35.586Z,17.60
2022-09-04T01:45:47.258Z,17.60
2022-09-04T01:50:50.652Z,17.60
2022-09-04T01:55:57.334Z,17.50
2022-09-04T02:01:06.123Z,17.40
2022-09-04T02:06:13.075Z,17.40
2022-09-04T02:11:16.693Z,17.40
2022-09-04T02:16:30.226Z,17.40
2022-09-04T02:21:34.051Z,17.30
2022-09-04T02:26:37.334Z,17.30
2022-09-04T02:31:46.081Z,17.20
2022-09-04T02:36:53.126Z,17.20
2022-09-04T02:42:03.772Z,17.20
2022-09-04T02:47:14.187Z,17.20
2022-09-04T02:52:22.991Z,17.20
2022-09-04T02:57:29.951Z,17.40
2022-09-04T03:02:33.985Z,17.30
2022-09-04T03:07:35.844Z,17.30
2022-09-04T03:12:41.076Z,17.30
2022-09-04T03:17:48.014Z,17.30
2022-09-04T03:22:53.587Z,17.20
2022-09-04T03:27:51.659Z,17.20
2022-09-04T03:32:59.329Z,17.20
2022-09-04T03:38:09.911Z,17.20
2022-09-04T03:43:23.739Z,17.10
2022-09-04T03:48:35.327Z,17.10
2022-09-04T03:53:41.517Z,17.00
2022-09-04T03:58:48.982Z,17.00
2022-09-04T04:04:01.260Z,17.00
2022-09-04T04:09:31.235Z,17.00
2022-09-04T04:14:54.108Z,17.00
2022-09-04T04:20:11.172Z,17.00
2022-09-04T04:25:36.393Z,16.90
2022-09-04T04:30:45.608Z,16.90
2022-09-04T04:35:51.195Z,16.80
2022-09-04T04:41:02.523Z,16.80
2022-09-04T04:46:10.207Z,16.80
2022-09-04T04:51:20.310Z,16.80
2022-09-04T04:56:23.585Z,16.70
2022-09-04T05:01:35.238Z,16.60
2022-09-04T05:06:40.823Z,16.50
2022-09-04T05:11:44.422Z,16.50
2022-09-04T05:16:55.497Z,16.50
2022-09-04T05:22:05.438Z,16.50
2022-09-04T05:27:09.980Z,16.70
2022-09-04T05:32:19.720Z,16.50
2022-09-04T05:37:27.506Z,16.50
2022-09-04T05:42:53.051Z,16.50
2022-09-04T05:48:02.518Z,16.70
2022-09-04T05:53:39.728Z,16.80
2022-09-04T05:58:55.016Z,16.90
2022-09-04T06:04:09.945Z,17.10
2022-09-04T06:09:29.605Z,17.10
2022-09-04T06:14:58.716Z,17.10
2022-09-04T06:20:29.854Z,17.20
2022-09-04T06:25:45.065Z,17.20
2022-09-04T06:30:54.675Z,17.40
2022-09-04T06:36:43.530Z,17.50
2022-09-04T06:41:58.959Z,17.60
2022-09-04T06:47:10.327Z,17.70
2022-09-04T06:52:22.277Z,18.00
2022-09-04T06:57:38.578Z,18.30
2022-09-04T07:03:07.732Z,18.30
2022-09-04T07:08:14.309Z,18.40
2022-09-04T07:13:39.977Z,18.80
2022-09-04T07:19:07.639Z,19.10
2022-09-04T07:24:09.827Z,19.30
2022-09-04T07:29:32.703Z,19.50
2022-09-04T07:34:44.316Z,19.50
2022-09-04T07:39:49.710Z,19.70
2022-09-04T07:44:55.481Z,19.80
2022-09-04T07:50:03.149Z,20.10
2022-09-04T07:55:15.341Z,20.50
2022-09-04T08:00:17.979Z,20.50
2022-09-04T08:05:25.206Z,20.60
2022-09-04T08:10:30.378Z,20.90
2022-09-04T08:15:42.879Z,21.10
2022-09-04T08:20:46.811Z,21.30
2022-09-04T08:25:55.819Z,21.50
2022-09-04T08:30:59.374Z,22.00
2022-09-04T08:36:03.065Z,22.60
2022-09-04T08:41:49.740Z,22.80
2022-09-04T08:47:14.296Z,22.80
2022-09-04T08:52:54.706Z,22.90
2022-09-04T08:58:34.265Z,23.60
2022-09-04T09:03:57.707Z,25.30
2022-09-04T09:09:40.533Z,27.10
2022-09-04T09:15:15.273Z,27.90
2022-09-04T09:20:28.955Z,28.90
2022-09-04T09:25:30.934Z,29.60
2022-09-04T09:30:44.944Z,30.50
2022-09-04T09:36:18.110Z,30.30
2022-09-04T09:41:55.622Z,30.70
2022-09-04T09:47:13.390Z,31.00
2022-09-04T09:52:43.799Z,31.80
2022-09-04T09:58:11.778Z,32.20
2022-09-04T10:03:49.543Z,31.50
2022-09-04T10:09:13.796Z,31.20
2022-09-04T10:14:46.780Z,31.50
2022-09-04T10:20:16.326Z,32.20
2022-09-04T10:25:52.004Z,33.00
2022-09-04T10:31:21.172Z,33.10
2022-09-04T10:36:33.620Z,33.50
2022-09-04T10:41:54.340Z,34.10
2022-09-04T10:47:03.323Z,33.70
2022-09-04T10:52:56.004Z,33.50
2022-09-04T10:58:33.429Z,32.40
2022-09-04T11:03:59.350Z,31.60
2022-09-04T11:09:22.901Z,31.40
2022-09-04T11:14:43.379Z,30.90
2022-09-04T11:20:20.534Z,30.80
2022-09-04T11:25:42.735Z,30.80
2022-09-04T11:31:05.058Z,30.50
2022-09-04T11:36:35.492Z,30.20
2022-09-04T11:42:08.328Z,30.20
2022-09-04T11:47:34.921Z,30.40
2022-09-04T11:53:08.119Z,30.50
2022-09-04T11:58:31.624Z,29.80
2022-09-04T12:03:56.372Z,29.60
2022-09-04T12:09:34.338Z,29.70
2022-09-04T12:14:47.705Z,29.90
2022-09-04T12:20:07.733Z,29.20
2022-09-04T12:25:50.010Z,28.90
2022-09-04T12:31:08.512Z,29.10
2022-09-04T12:36:59.396Z,29.40
2022-09-04T12:42:03.146Z,29.50
2022-09-04T12:47:16.900Z,29.00
2022-09-04T12:52:22.855Z,28.50
2022-09-04T12:57:34.219Z,28.30
2022-09-04T13:02:45.034Z,28.10
2022-09-04T13:07:53.766Z,28.10
2022-09-04T13:13:02.567Z,27.90
2022-09-04T13:18:18.347Z,27.80
2022-09-04T13:23:46.162Z,27.80
2022-09-04T13:28:53.945Z,27.60
2022-09-04T13:34:01.626Z,27.20
2022-09-04T13:39:43.571Z,27.30
2022-09-04T13:45:11.209Z,27.70
2022-09-04T13:50:20.725Z,28.00
2022-09-04T13:55:25.181Z,27.90
2022-09-04T14:00:23.299Z,28.00
2022-09-04T14:05:25.414Z,27.70
2022-09-04T14:10:30.346Z,27.60
2022-09-04T14:16:02.517Z,28.00
2022-09-04T14:21:11.294Z,28.10
2022-09-04T14:26:17.322Z,28.60
2022-09-04T14:31:24.257Z,28.20
2022-09-04T14:36:35.356Z,28.00
2022-09-04T14:41:46.783Z,28.20
2022-09-04T14:46:55.407Z,28.30
2022-09-04T14:51:57.290Z,28.30
2022-09-04T14:56:59.089Z,28.10
2022-09-04T15:02:12.612Z,28.20
2022-09-04T15:07:30.836Z,28.60
2022-09-04T15:12:33.602Z,29.00
2022-09-04T15:17:32.576Z,29.10
2022-09-04T15:22:37.839Z,28.90
2022-09-04T15:27:43.982Z,28.90
2022-09-04T15:32:43.518Z,28.30
2022-09-04T15:37:48.415Z,27.70
2022-09-04T15:42:55.235Z,27.70
2022-09-04T15:48:17.368Z,28.00
2022-09-04T15:53:27.069Z,28.00
2022-09-04T15:58:30.313Z,28.10
2022-09-04T16:03:36.501Z,28.00
2022-09-04T16:08:42.803Z,28.00
2022-09-04T16:13:52.377Z,27.70
2022-09-04T16:19:05.736Z,27.50
2022-09-04T16:24:12.950Z,27.50
2022-09-04T16:29:34.885Z,27.20
2022-09-04T16:34:38.773Z,27.20
2022-09-04T16:39:56.130Z,27.50
2022-09-04T16:45:01.281Z,27.90
2022-09-04T16:50:03.952Z,28.30
2022-09-04T16:55:10.038Z,28.80
2022-09-04T17:00:11.228Z,29.20
2022-09-04T17:05:19.807Z,28.80
2022-09-04T17:10:36.509Z,28.10
2022-09-04T17:15:44.173Z,27.60
2022-09-04T17:22:54.129Z,27.00
2022-09-04T17:29:18.567Z,26.40
2022-09-04T17:31:54.159Z,25.80
2022-09-04T17:40:37.324Z,25.50
2022-09-04T17:42:25.006Z,25.20
2022-09-04T17:47:32.728Z,24.80
2022-09-04T17:52:34.056Z,24.60
2022-09-04T17:57:52.626Z,24.30
2022-09-04T18:02:56.165Z,24.10
2022-09-04T18:08:09.305Z,23.90
2022-09-04T18:13:36.756Z,23.70
2022-09-04T18:18:40.094Z,23.50
2022-09-04T18:23:56.318Z,23.30
2022-09-04T18:29:29.066Z,23.10
2022-09-04T18:37:17.997Z,23.00
2022-09-04T18:39:50.960Z,22.90
2022-09-04T18:50:32.732Z,22.60
2022-09-04T18:50:33.083Z,22.70
2022-09-04T18:55:38.306Z,22.50
2022-09-04T19:00:45.423Z,22.40
2022-09-04T19:05:46.813Z,22.40
2022-09-04T19:10:48.154Z,22.30
2022-09-04T19:15:58.368Z,22.20
2022-09-04T19:21:18.243Z,22.20
2022-09-04T19:26:25.812Z,22.10
2022-09-04T19:31:33.769Z,22.10
2022-09-04T19:36:39.045Z,22.00
2022-09-04T19:46:02.143Z,21.90
2022-09-04T19:47:28.536Z,21.80
2022-09-04T19:53:31.421Z,21.80
2022-09-04T19:58:01.876Z,21.70
2022-09-04T20:03:06.557Z,21.70
2022-09-04T20:08:07.919Z,21.70
2022-09-04T20:13:27.711Z,21.60
2022-09-04T20:18:30.156Z,21.60
2022-09-04T20:23:35.698Z,21.60
2022-09-04T20:28:49.430Z,21.50
2022-09-04T20:33:52.052Z,21.50
2022-09-04T20:38:58.060Z,21.40
2022-09-04T20:44:03.463Z,21.30
2022-09-04T20:52:53.856Z,21.20
2022-09-04T20:54:51.798Z,21.10
2022-09-04T21:03:10.403Z,21.00
2022-09-04T21:05:46.256Z,20.90
2022-09-04T21:10:53.327Z,20.90
2022-09-04T21:16:02.816Z,20.90
2022-09-04T21:21:15.518Z,20.80
2022-09-04T21:26:25.617Z,20.70
2022-09-04T21:31:44.276Z,20.70
2022-09-04T21:36:50.307Z,20.60
2022-09-04T21:42:17.045Z,20.60
2022-09-04T21:47:32.294Z,20.50
2022-09-04T21:52:56.225Z,20.40
2022-09-04T22:02:40.284Z,20.40
2022-09-04T22:04:01.545Z,20.30
2022-09-04T22:13:31.817Z,20.30
2022-09-04T22:14:33.605Z,20.20
2022-09-04T22:19:53.273Z,20.10
2022-09-04T22:25:20.413Z,20.00
2022-09-04T22:30:20.812Z,20.10
2022-09-04T22:35:57.125Z,20.00
2022-09-04T22:41:31.122Z,20.00
2022-09-04T22:46:56.774Z,19.90
2022-09-04T22:52:24.396Z,19.90
2022-09-04T22:57:33.408Z,19.80
2022-09-04T23:03:17.554Z,19.70
2022-09-04T23:13:44.263Z,19.60
2022-09-04T23:14:21.085Z,19.50
2022-09-04T23:25:31.053Z,19.40
2022-09-04T23:26:38.559Z,19.30
2022-09-04T23:30:35.921Z,19.30
2022-09-04T23:35:47.376Z,19.20
2022-09-04T23:40:46.918Z,19.20
2022-09-04T23:46:08.807Z,19.10
2022-09-04T23:51:22.036Z,19.10
2022-09-04T23:56:27.505Z,19.00
